weather.gov     
National Weather Service

Terminal Aerodrome Forecast
NWS Homepage
This page is being discontinued on March 12, 2014.
The same data is available at this site. Please update your bookmarks.
Thank you, and we apologize for the inconvenience.
Please send an email to SR-SRH.Webmaster@noaa.gov with any concerns.


Current Version
Previous Version:    01  02  03  04  05  06  07  08  09  10  11  12  13  14  15  16  17  18  19  20  21  22  23  24  25  26  27  28  29  30  
   31  32  33  34  35  36  
[Printable]
650
FTUS43 KGRB 290500
TAFCWA
TAF
KCWA 290530Z 2906/3006 12005KT 5SM BR BKN010 OVC090
      TEMPO 2906/2908 -FZDZ BKN008
     FM291600 16006KT 5SM HZ BKN015
     FM292000 22007KT P6SM SCT015 SCT140
     FM300400 27006KT P6SM SCT015 BKN140
      AMD LTD TO CLD VIS AND WIND TIL 291200=


U.S. Dept. of Commerce
NOAA National Weather Service
1325 East West Highway
Silver Spring, MD 20910
E-mail: w-nws.webmaster@noaa.gov
Page last modified: May 16, 2007
NATIONAL WEATHER SERVICE: for Safety, for Work, for Fun - FOR LIFE